createdAt,value
2022-11-24T00:00:11.915Z,92.60
2022-11-24T00:00:43.671Z,92.70
2022-11-24T00:01:19.032Z,93.30
2022-11-24T00:01:50.880Z,92.80
2022-11-24T00:02:22.845Z,93.30
2022-11-24T00:02:54.761Z,92.80
2022-11-24T00:03:26.710Z,92.70
2022-11-24T00:04:01.299Z,92.70
2022-11-24T00:04:33.256Z,92.70
2022-11-24T00:05:05.705Z,93.30
2022-11-24T00:05:38.482Z,92.70
2022-11-24T00:06:12.826Z,92.80
2022-11-24T00:06:44.554Z,92.80
2022-11-24T00:07:16.351Z,92.80
2022-11-24T00:07:48.151Z,92.80
2022-11-24T00:08:19.971Z,92.80
2022-11-24T00:08:52.134Z,92.80
2022-11-24T00:09:23.865Z,93.10
2022-11-24T00:09:55.690Z,92.40
2022-11-24T00:10:27.431Z,92.80
2022-11-24T00:11:06.676Z,93.10
2022-11-24T00:11:38.566Z,92.90
2022-11-24T00:12:10.315Z,92.70
2022-11-24T00:12:42.212Z,92.80
2022-11-24T00:13:13.957Z,92.80
2022-11-24T00:13:46.322Z,92.70
2022-11-24T00:14:18.136Z,92.70
2022-11-24T00:14:49.864Z,92.80
2022-11-24T00:15:21.717Z,92.90
2022-11-24T00:15:53.467Z,92.70
2022-11-24T00:16:26.564Z,92.70
2022-11-24T00:16:58.357Z,92.70
2022-11-24T00:17:30.123Z,93.30
2022-11-24T00:18:01.846Z,92.70
2022-11-24T00:18:33.625Z,92.70
2022-11-24T00:19:09.173Z,92.70
2022-11-24T00:19:41.929Z,93.10
2022-11-24T00:20:13.684Z,93.30
2022-11-24T00:20:52.301Z,93.40
2022-11-24T00:21:25.413Z,92.70
2022-11-24T00:21:57.135Z,93.20
2022-11-24T00:22:28.879Z,92.70
2022-11-24T00:23:01.450Z,92.70
2022-11-24T00:23:34.211Z,93.20
2022-11-24T00:24:06.619Z,92.70
2022-11-24T00:24:38.405Z,92.70
2022-11-24T00:25:10.120Z,93.60
2022-11-24T00:25:41.839Z,93.00
2022-11-24T00:26:24.954Z,93.40
2022-11-24T00:26:56.706Z,92.80
2022-11-24T00:27:28.427Z,93.40
2022-11-24T00:28:00.156Z,93.00
2022-11-24T00:28:33.845Z,92.80
2022-11-24T00:29:07.651Z,92.80
2022-11-24T00:29:39.469Z,92.80
2022-11-24T00:30:11.783Z,92.80
2022-11-24T00:30:43.635Z,92.80
2022-11-24T00:31:25.801Z,93.40
2022-11-24T00:31:57.623Z,92.80
2022-11-24T00:32:29.855Z,92.80
2022-11-24T00:33:01.564Z,93.10
2022-11-24T00:33:33.475Z,92.90
2022-11-24T00:34:09.497Z,92.90
2022-11-24T00:34:41.994Z,92.90
2022-11-24T00:35:13.851Z,93.00
2022-11-24T00:35:45.597Z,92.80
2022-11-24T00:36:18.433Z,93.50
2022-11-24T00:36:50.134Z,92.80
2022-11-24T00:37:22.008Z,92.70
2022-11-24T00:37:55.771Z,92.70
2022-11-24T00:38:27.647Z,93.30
2022-11-24T00:39:02.243Z,92.80
2022-11-24T00:39:33.972Z,92.80
2022-11-24T00:40:06.405Z,92.80
2022-11-24T00:40:38.205Z,92.80
2022-11-24T00:41:10.514Z,92.80
2022-11-24T00:41:42.624Z,92.90
2022-11-24T00:42:14.369Z,93.40
2022-11-24T00:42:46.158Z,93.40
2022-11-24T00:43:18.487Z,92.80
2022-11-24T00:43:50.499Z,92.80
2022-11-24T00:44:22.194Z,92.80
2022-11-24T00:44:53.955Z,92.80
2022-11-24T00:45:25.738Z,92.80
2022-11-24T00:45:57.596Z,92.90
2022-11-24T00:46:29.853Z,92.80
2022-11-24T00:47:01.777Z,93.00
2022-11-24T00:47:33.595Z,92.80
2022-11-24T00:48:05.517Z,92.80
2022-11-24T00:48:37.247Z,92.80
2022-11-24T00:49:09.111Z,92.90
2022-11-24T00:49:40.835Z,92.80
2022-11-24T00:50:12.597Z,93.40
2022-11-24T00:50:44.342Z,92.80
2022-11-24T00:51:18.204Z,92.90
2022-11-24T00:51:49.992Z,92.80
2022-11-24T00:52:21.716Z,92.80
2022-11-24T00:52:53.474Z,92.80
2022-11-24T00:53:26.037Z,92.80
2022-11-24T00:53:58.803Z,93.00
2022-11-24T00:54:31.027Z,92.90
2022-11-24T00:55:03.364Z,92.80
2022-11-24T00:55:35.219Z,93.10
2022-11-24T00:56:08.166Z,92.90
2022-11-24T00:56:39.910Z,92.80
2022-11-24T00:57:11.640Z,92.80
2022-11-24T00:57:43.394Z,92.80
2022-11-24T00:58:15.110Z,92.80
2022-11-24T00:58:46.858Z,93.00
2022-11-24T00:59:18.696Z,93.00
2022-11-24T00:59:50.433Z,92.80
2022-11-24T01:00:22.351Z,92.80
2022-11-24T01:00:54.262Z,92.80
2022-11-24T01:01:28.657Z,93.10
2022-11-24T01:02:00.612Z,92.90
2022-11-24T01:02:32.481Z,93.10
2022-11-24T01:03:04.338Z,93.00
2022-11-24T01:03:36.665Z,93.10
2022-11-24T01:04:08.466Z,92.80
2022-11-24T01:04:40.264Z,92.80
2022-11-24T01:05:12.022Z,92.90
2022-11-24T01:05:43.855Z,93.10
2022-11-24T01:06:18.037Z,92.80
2022-11-24T01:06:49.762Z,92.90
2022-11-24T01:07:21.581Z,93.00
2022-11-24T01:07:53.357Z,93.40
2022-11-24T01:08:25.144Z,92.90
2022-11-24T01:08:57.959Z,92.90
2022-11-24T01:09:29.761Z,92.90
2022-11-24T01:10:01.718Z,93.00
2022-11-24T01:10:33.527Z,92.90
2022-11-24T01:11:14.900Z,92.90
2022-11-24T01:12:02.093Z,93.10
2022-11-24T01:12:35.272Z,92.90
2022-11-24T01:13:07.056Z,92.90
2022-11-24T01:13:39.881Z,93.20
2022-11-24T01:14:11.616Z,93.00
2022-11-24T01:14:43.465Z,93.00
2022-11-24T01:15:15.270Z,93.50
2022-11-24T01:15:47.179Z,92.90
2022-11-24T01:16:23.609Z,92.90
2022-11-24T01:16:55.712Z,92.90
2022-11-24T01:17:27.525Z,93.00
2022-11-24T01:17:59.260Z,92.80
2022-11-24T01:18:31.213Z,93.50
2022-11-24T01:19:03.868Z,92.90
2022-11-24T01:19:35.634Z,93.20
2022-11-24T01:20:08.252Z,93.20
2022-11-24T01:20:39.993Z,92.90
2022-11-24T01:21:11.808Z,93.40
2022-11-24T01:21:43.575Z,92.90
2022-11-24T01:22:15.785Z,92.90
2022-11-24T01:22:48.659Z,92.90
2022-11-24T01:23:20.454Z,92.90
2022-11-24T01:23:52.325Z,92.90
2022-11-24T01:24:24.068Z,92.90
2022-11-24T01:24:55.830Z,92.20
2022-11-24T01:25:27.645Z,93.10
2022-11-24T01:25:59.398Z,93.50
2022-11-24T01:26:31.185Z,92.80
2022-11-24T01:27:02.946Z,92.90
2022-11-24T01:27:34.973Z,92.90
2022-11-24T01:28:06.908Z,93.30
2022-11-24T01:28:44.909Z,93.40
2022-11-24T01:29:18.609Z,93.00
2022-11-24T01:29:50.373Z,92.90
2022-11-24T01:30:23.049Z,92.80
2022-11-24T01:31:03.564Z,92.90
2022-11-24T01:31:36.866Z,92.80
2022-11-24T01:32:08.595Z,92.90
2022-11-24T01:32:40.338Z,92.90
2022-11-24T01:33:12.061Z,92.90
2022-11-24T01:33:43.822Z,93.10
2022-11-24T01:34:15.545Z,93.10
2022-11-24T01:34:47.357Z,92.90
2022-11-24T01:35:19.068Z,92.80
2022-11-24T01:35:50.958Z,93.10
2022-11-24T01:36:22.887Z,93.40
2022-11-24T01:36:54.643Z,92.70
2022-11-24T01:37:26.390Z,92.70
2022-11-24T01:37:58.119Z,92.80
2022-11-24T01:38:29.958Z,93.00
2022-11-24T01:39:02.029Z,92.70
2022-11-24T01:39:33.752Z,92.80
2022-11-24T01:40:06.158Z,92.80
2022-11-24T01:40:37.920Z,92.70
2022-11-24T01:41:16.304Z,92.80
2022-11-24T01:41:48.066Z,92.70
2022-11-24T01:42:19.923Z,93.00
2022-11-24T01:42:53.162Z,93.20
2022-11-24T01:43:24.885Z,92.80
2022-11-24T01:43:57.417Z,92.70
2022-11-24T01:44:30.975Z,93.10
2022-11-24T01:45:36.001Z,92.70
2022-11-24T01:46:30.802Z,92.70
2022-11-24T01:47:18.858Z,92.70
2022-11-24T01:47:50.714Z,92.60
2022-11-24T01:48:37.574Z,92.70
2022-11-24T01:49:12.971Z,93.00
2022-11-24T01:49:53.250Z,93.30
2022-11-24T01:50:25.374Z,92.60
2022-11-24T01:51:14.892Z,92.60
2022-11-24T01:52:01.307Z,92.60
2022-11-24T01:52:45.462Z,92.60
2022-11-24T01:53:17.344Z,92.60
2022-11-24T01:53:58.930Z,92.60
2022-11-24T01:54:38.637Z,92.60
2022-11-24T01:55:18.278Z,92.60
2022-11-24T01:55:52.214Z,92.60
2022-11-24T01:56:25.534Z,93.00
2022-11-24T01:57:24.496Z,92.50
2022-11-24T01:58:03.835Z,92.50
2022-11-24T01:58:37.828Z,92.60
2022-11-24T01:59:13.921Z,92.60
2022-11-24T01:59:50.345Z,92.60
2022-11-24T02:00:27.450Z,92.80
2022-11-24T02:00:59.705Z,93.10
2022-11-24T02:01:32.290Z,92.60
2022-11-24T02:02:04.703Z,92.60
2022-11-24T02:02:36.696Z,92.60
2022-11-24T02:03:09.872Z,92.80
2022-11-24T02:03:45.128Z,92.70
2022-11-24T02:04:23.748Z,92.60
2022-11-24T02:04:59.260Z,92.60
2022-11-24T02:05:54.928Z,92.70
2022-11-24T02:06:30.162Z,92.60
2022-11-24T02:07:05.711Z,92.60
2022-11-24T02:07:38.281Z,93.00
2022-11-24T02:08:25.445Z,92.60
2022-11-24T02:09:03.285Z,92.60
2022-11-24T02:09:48.428Z,92.60
2022-11-24T02:10:20.476Z,92.60
2022-11-24T02:10:52.213Z,92.60
2022-11-24T02:11:29.387Z,93.20
2022-11-24T02:12:03.111Z,93.20
2022-11-24T02:12:37.755Z,92.50
2022-11-24T02:13:09.935Z,92.50
2022-11-24T02:13:43.416Z,93.10
2022-11-24T02:14:18.538Z,92.50
2022-11-24T02:14:52.075Z,92.70
2022-11-24T02:15:25.189Z,92.50
2022-11-24T02:15:57.168Z,93.00
2022-11-24T02:16:30.341Z,92.50
2022-11-24T02:17:02.191Z,92.50
2022-11-24T02:17:33.922Z,93.00
2022-11-24T02:18:05.786Z,92.50
2022-11-24T02:18:39.812Z,92.70
2022-11-24T02:19:25.180Z,92.50
2022-11-24T02:20:00.675Z,93.10
2022-11-24T02:20:32.616Z,92.50
2022-11-24T02:21:05.192Z,93.00
2022-11-24T02:21:36.957Z,93.20
2022-11-24T02:22:27.298Z,92.60
2022-11-24T02:23:02.105Z,92.40
2022-11-24T02:23:41.420Z,92.50
2022-11-24T02:24:24.041Z,92.40
2022-11-24T02:25:08.471Z,92.40
2022-11-24T02:25:43.241Z,92.40
2022-11-24T02:26:28.125Z,92.60
2022-11-24T02:27:00.090Z,92.50
2022-11-24T02:27:31.954Z,92.40
2022-11-24T02:28:10.102Z,92.40
2022-11-24T02:28:41.963Z,92.40
2022-11-24T02:29:15.294Z,92.90
2022-11-24T02:29:49.093Z,92.40
2022-11-24T02:30:20.920Z,92.40
2022-11-24T02:30:53.303Z,92.50
2022-11-24T02:31:25.798Z,92.50
2022-11-24T02:32:04.795Z,92.40
2022-11-24T02:32:41.246Z,92.30
2022-11-24T02:33:14.249Z,92.40
2022-11-24T02:33:46.860Z,93.20
2022-11-24T02:34:18.695Z,92.50
2022-11-24T02:34:59.026Z,92.50
2022-11-24T02:35:32.208Z,93.00
2022-11-24T02:36:04.174Z,92.30
2022-11-24T02:36:35.932Z,92.40
2022-11-24T02:37:07.991Z,92.30
2022-11-24T02:37:39.738Z,92.40
2022-11-24T02:38:14.829Z,92.30
2022-11-24T02:38:46.542Z,92.30
2022-11-24T02:39:18.492Z,92.40
2022-11-24T02:39:50.223Z,92.40
2022-11-24T02:40:26.862Z,92.40
2022-11-24T02:41:03.756Z,92.40
2022-11-24T02:41:35.563Z,93.10
2022-11-24T02:42:12.665Z,92.40
2022-11-24T02:42:46.980Z,92.70
2022-11-24T02:43:23.259Z,92.30
2022-11-24T02:43:58.377Z,92.90
2022-11-24T02:44:35.959Z,92.50
2022-11-24T02:45:10.185Z,92.30
2022-11-24T02:45:42.135Z,92.30
2022-11-24T02:46:14.297Z,92.90
2022-11-24T02:46:46.116Z,92.60
2022-11-24T02:47:17.928Z,93.10
2022-11-24T02:47:49.697Z,92.40
2022-11-24T02:48:22.196Z,92.40
2022-11-24T02:48:54.014Z,92.30
2022-11-24T02:49:25.754Z,92.30
2022-11-24T02:49:57.528Z,92.80
2022-11-24T02:50:29.387Z,92.40
2022-11-24T02:51:01.222Z,93.10
2022-11-24T02:51:34.399Z,92.30
2022-11-24T02:52:07.293Z,92.10
2022-11-24T02:52:39.277Z,92.30
2022-11-24T02:53:11.018Z,92.80
2022-11-24T02:53:42.753Z,92.30
2022-11-24T02:54:14.473Z,92.50
2022-11-24T02:54:46.223Z,92.30
2022-11-24T02:55:18.016Z,92.30
2022-11-24T02:55:49.815Z,92.40
2022-11-24T02:56:21.569Z,92.30
2022-11-24T02:56:53.530Z,92.30
2022-11-24T02:57:25.254Z,92.30
2022-11-24T02:57:57.045Z,92.30
2022-11-24T02:58:28.937Z,92.60
2022-11-24T02:59:00.673Z,93.00
2022-11-24T02:59:32.548Z,92.30
2022-11-24T03:00:04.923Z,92.10
2022-11-24T03:00:36.680Z,92.40
2022-11-24T03:01:08.762Z,92.40
2022-11-24T03:01:40.638Z,92.30
2022-11-24T03:02:12.511Z,92.40
2022-11-24T03:02:44.323Z,92.70
2022-11-24T03:03:16.336Z,92.60
2022-11-24T03:03:48.187Z,92.40
2022-11-24T03:04:19.962Z,92.50
2022-11-24T03:04:51.752Z,92.40
2022-11-24T03:05:24.045Z,92.30
2022-11-24T03:05:55.784Z,92.30
2022-11-24T03:06:27.522Z,92.30
2022-11-24T03:06:59.329Z,92.20
2022-11-24T03:07:31.080Z,92.30
2022-11-24T03:08:03.144Z,92.30
2022-11-24T03:08:34.890Z,92.30
2022-11-24T03:09:06.895Z,92.40
2022-11-24T03:09:38.668Z,92.70
2022-11-24T03:10:10.481Z,92.90
2022-11-24T03:10:42.474Z,92.90
2022-11-24T03:11:14.206Z,92.70
2022-11-24T03:11:46.260Z,92.40
2022-11-24T03:12:18.083Z,92.70
2022-11-24T03:12:49.862Z,92.60
2022-11-24T03:13:21.570Z,92.40
2022-11-24T03:13:53.337Z,92.40
2022-11-24T03:14:25.048Z,92.30
2022-11-24T03:14:56.840Z,92.40
2022-11-24T03:15:28.575Z,92.90
2022-11-24T03:16:00.415Z,92.70
2022-11-24T03:16:32.673Z,92.50
2022-11-24T03:17:04.496Z,92.40
2022-11-24T03:17:36.287Z,92.80
2022-11-24T03:18:08.081Z,92.30
2022-11-24T03:18:39.877Z,92.50
2022-11-24T03:19:11.723Z,92.50
2022-11-24T03:19:46.806Z,92.30
2022-11-24T03:20:18.772Z,92.30
2022-11-24T03:20:50.533Z,92.30
2022-11-24T03:21:22.308Z,92.30
2022-11-24T03:21:54.039Z,92.60
2022-11-24T03:22:26.002Z,92.30
2022-11-24T03:22:57.896Z,92.30
2022-11-24T03:23:29.663Z,92.30
2022-11-24T03:24:01.434Z,92.30
2022-11-24T03:24:33.505Z,92.30
2022-11-24T03:25:05.825Z,92.40
2022-11-24T03:25:37.566Z,92.30
2022-11-24T03:26:15.280Z,92.50
2022-11-24T03:26:47.022Z,92.40
2022-11-24T03:27:18.956Z,92.70
2022-11-24T03:27:51.109Z,92.90
2022-11-24T03:28:22.884Z,92.70
2022-11-24T03:28:57.637Z,92.40
2022-11-24T03:29:30.071Z,92.40
2022-11-24T03:30:01.876Z,92.30
2022-11-24T03:30:33.680Z,92.30
2022-11-24T03:31:07.716Z,92.20
2022-11-24T03:31:39.658Z,92.20
2022-11-24T03:32:11.522Z,92.30
2022-11-24T03:32:43.346Z,92.20
2022-11-24T03:33:15.166Z,92.20
2022-11-24T03:33:46.925Z,92.40
2022-11-24T03:34:18.687Z,92.30
2022-11-24T03:34:50.459Z,92.30
2022-11-24T03:35:22.597Z,92.40
2022-11-24T03:35:54.381Z,93.00
2022-11-24T03:36:26.721Z,92.30
2022-11-24T03:36:58.644Z,92.30
2022-11-24T03:37:30.704Z,92.50
2022-11-24T03:38:02.428Z,92.30
2022-11-24T03:38:34.322Z,92.30
2022-11-24T03:39:07.056Z,92.30
2022-11-24T03:39:38.824Z,92.30
2022-11-24T03:40:11.068Z,92.50
2022-11-24T03:40:42.768Z,92.30
2022-11-24T03:41:14.503Z,93.00
2022-11-24T03:41:46.283Z,92.30
2022-11-24T03:42:18.101Z,92.30
2022-11-24T03:42:49.873Z,92.30
2022-11-24T03:43:21.756Z,92.90
2022-11-24T03:43:53.501Z,92.90
2022-11-24T03:44:25.257Z,92.40
2022-11-24T03:44:57.062Z,92.40
2022-11-24T03:46:20.600Z,92.40
2022-11-24T03:46:52.419Z,92.30
2022-11-24T03:47:24.164Z,92.60
2022-11-24T03:47:55.860Z,92.20
2022-11-24T03:48:27.608Z,92.30
2022-11-24T03:48:59.596Z,92.40
2022-11-24T03:49:31.615Z,92.30
2022-11-24T03:50:03.830Z,92.30
2022-11-24T03:50:35.551Z,92.20
2022-11-24T03:51:07.367Z,92.40
2022-11-24T03:51:39.151Z,92.60
2022-11-24T03:52:10.910Z,92.20
2022-11-24T03:52:42.673Z,92.70
2022-11-24T03:53:14.383Z,92.20
2022-11-24T03:53:46.164Z,93.00
2022-11-24T03:54:17.877Z,92.20
2022-11-24T03:54:49.587Z,92.20
2022-11-24T03:55:21.343Z,92.70
2022-11-24T03:55:53.594Z,92.30
2022-11-24T03:56:25.377Z,92.30
2022-11-24T03:56:57.197Z,92.30
2022-11-24T03:57:29.041Z,92.90
2022-11-24T03:58:01.140Z,92.30
2022-11-24T03:58:33.236Z,92.80
2022-11-24T03:59:05.082Z,92.70
2022-11-24T03:59:36.803Z,92.30
2022-11-24T04:00:09.663Z,92.20
2022-11-24T04:00:42.304Z,92.20
2022-11-24T04:01:14.185Z,92.20
2022-11-24T04:01:46.011Z,92.20
2022-11-24T04:02:17.829Z,92.20
2022-11-24T04:02:49.632Z,92.20
2022-11-24T04:03:21.746Z,92.20
2022-11-24T04:03:53.489Z,92.80
2022-11-24T04:04:25.216Z,92.20
2022-11-24T04:04:56.951Z,92.30
2022-11-24T04:05:28.724Z,92.20
2022-11-24T04:06:00.498Z,92.80
2022-11-24T04:06:32.262Z,92.10
2022-11-24T04:07:04.004Z,92.40
2022-11-24T04:07:35.754Z,92.10
2022-11-24T04:08:07.618Z,92.10
2022-11-24T04:08:39.666Z,92.00
2022-11-24T04:09:11.553Z,92.70
2022-11-24T04:09:43.547Z,92.00
2022-11-24T04:10:15.334Z,92.00
2022-11-24T04:10:51.237Z,92.00
2022-11-24T04:11:41.434Z,92.10
2022-11-24T04:12:31.879Z,92.40
2022-11-24T04:13:05.407Z,92.50
2022-11-24T04:13:37.160Z,92.20
2022-11-24T04:14:13.346Z,92.10
2022-11-24T04:14:45.595Z,92.60
2022-11-24T04:15:19.585Z,92.00
2022-11-24T04:15:52.322Z,91.90
2022-11-24T04:16:24.205Z,92.60
2022-11-24T04:16:56.075Z,92.40
2022-11-24T04:17:28.578Z,92.00
2022-11-24T04:18:00.310Z,92.00
2022-11-24T04:18:32.322Z,92.20
2022-11-24T04:19:04.073Z,92.70
2022-11-24T04:19:35.825Z,92.00
2022-11-24T04:20:08.537Z,92.30
2022-11-24T04:20:41.167Z,92.00
2022-11-24T04:21:12.884Z,91.90
2022-11-24T04:21:44.981Z,92.00
2022-11-24T04:22:16.991Z,92.00
2022-11-24T04:22:51.599Z,92.00
2022-11-24T04:23:23.331Z,92.00
2022-11-24T04:23:55.081Z,92.70
2022-11-24T04:24:26.828Z,92.30
2022-11-24T04:24:58.615Z,92.10
2022-11-24T04:25:30.775Z,92.40
2022-11-24T04:26:02.526Z,91.90
2022-11-24T04:26:34.320Z,92.10
2022-11-24T04:27:06.062Z,91.90
2022-11-24T04:27:38.669Z,91.90
2022-11-24T04:28:11.000Z,91.80
2022-11-24T04:28:42.772Z,91.90
2022-11-24T04:29:14.546Z,91.90
2022-11-24T04:29:46.351Z,91.90
2022-11-24T04:30:18.631Z,91.90
2022-11-24T04:30:50.406Z,91.90
2022-11-24T04:31:22.235Z,92.30
2022-11-24T04:31:53.995Z,92.00
2022-11-24T04:32:25.773Z,91.90
2022-11-24T04:32:57.568Z,92.10
2022-11-24T04:33:29.377Z,92.00
2022-11-24T04:34:01.089Z,92.00
2022-11-24T04:34:33.048Z,92.10
2022-11-24T04:35:05.422Z,92.40
2022-11-24T04:35:37.244Z,92.00
2022-11-24T04:36:09.090Z,92.10
2022-11-24T04:36:40.957Z,92.00
2022-11-24T04:37:13.047Z,92.60
2022-11-24T04:37:45.154Z,92.40
2022-11-24T04:39:19.592Z,92.20
2022-11-24T04:39:23.589Z,92.00
2022-11-24T04:39:56.390Z,91.90
2022-11-24T04:40:28.194Z,92.00
2022-11-24T04:41:04.210Z,92.20
2022-11-24T04:41:35.992Z,92.00
2022-11-24T04:42:07.870Z,92.30
2022-11-24T04:42:39.749Z,91.90
2022-11-24T04:43:12.020Z,91.90
2022-11-24T04:43:43.755Z,92.00
2022-11-24T04:44:15.564Z,92.40
2022-11-24T04:44:47.389Z,91.90
2022-11-24T04:45:19.112Z,91.90
2022-11-24T04:45:50.844Z,91.90
2022-11-24T04:46:22.805Z,92.30
2022-11-24T04:46:54.660Z,91.90
2022-11-24T04:47:27.436Z,91.90
2022-11-24T04:47:59.248Z,92.50
2022-11-24T04:48:30.965Z,92.00
2022-11-24T04:49:02.737Z,92.40
2022-11-24T04:49:34.488Z,92.00
2022-11-24T04:50:09.865Z,92.00
2022-11-24T04:50:41.841Z,91.90
2022-11-24T04:51:14.987Z,91.90
2022-11-24T04:51:46.934Z,92.00
2022-11-24T04:52:20.405Z,92.70
2022-11-24T04:52:52.610Z,92.60
2022-11-24T04:53:24.360Z,92.20
2022-11-24T04:53:56.182Z,92.20
2022-11-24T04:54:27.962Z,92.40
2022-11-24T04:54:59.769Z,92.70
2022-11-24T04:55:31.545Z,92.00
2022-11-24T04:56:06.753Z,92.20
2022-11-24T04:56:39.455Z,92.00
2022-11-24T04:57:23.351Z,92.00
2022-11-24T04:57:55.208Z,91.90
2022-11-24T04:58:26.906Z,92.10
2022-11-24T04:59:01.624Z,92.00
2022-11-24T04:59:36.930Z,92.60
2022-11-24T05:00:10.389Z,92.00
2022-11-24T05:00:42.109Z,92.00
2022-11-24T05:01:13.897Z,92.30
2022-11-24T05:01:47.320Z,92.00
2022-11-24T05:02:19.684Z,92.50
2022-11-24T05:02:51.396Z,92.00
2022-11-24T05:03:23.812Z,92.30
2022-11-24T05:03:56.705Z,92.80
2022-11-24T05:04:28.529Z,92.70
2022-11-24T05:05:00.469Z,92.20
2022-11-24T05:05:32.443Z,92.50
2022-11-24T05:06:04.434Z,92.00
2022-11-24T05:06:36.183Z,91.90
2022-11-24T05:07:18.870Z,92.10
2022-11-24T05:07:51.119Z,92.10
2022-11-24T05:08:22.879Z,92.00
2022-11-24T05:08:54.795Z,92.00
2022-11-24T05:09:47.957Z,92.70
2022-11-24T05:10:37.158Z,92.10
2022-11-24T05:11:08.936Z,92.00
2022-11-24T05:11:40.719Z,92.70
2022-11-24T05:12:12.473Z,92.00
2022-11-24T05:12:48.552Z,92.50
2022-11-24T05:13:22.996Z,92.20
2022-11-24T05:13:54.731Z,92.00
2022-11-24T05:14:28.349Z,92.00
2022-11-24T05:15:01.898Z,92.00
2022-11-24T05:15:34.088Z,92.10
2022-11-24T05:16:06.110Z,92.60
2022-11-24T05:16:38.202Z,92.10
2022-11-24T05:17:09.960Z,92.40
2022-11-24T05:17:41.704Z,92.70
2022-11-24T05:18:18.038Z,92.10
2022-11-24T05:18:49.996Z,92.10
2022-11-24T05:19:21.728Z,92.20
2022-11-24T05:19:53.453Z,92.00
2022-11-24T05:20:25.592Z,92.00
2022-11-24T05:20:58.552Z,92.40
2022-11-24T05:21:30.288Z,92.10
2022-11-24T05:22:02.053Z,92.20
2022-11-24T05:22:34.502Z,92.60
2022-11-24T05:23:07.789Z,92.20
2022-11-24T05:23:39.554Z,92.50
2022-11-24T05:24:11.435Z,92.30
2022-11-24T05:24:43.222Z,92.20
2022-11-24T05:25:15.503Z,92.90
2022-11-24T05:25:47.916Z,92.60
2022-11-24T05:26:19.871Z,92.70
2022-11-24T05:26:51.644Z,92.50
2022-11-24T05:27:23.879Z,92.50
2022-11-24T05:27:58.657Z,92.80
2022-11-24T05:28:31.248Z,92.00
2022-11-24T05:29:03.140Z,92.00
2022-11-24T05:29:34.900Z,92.10
2022-11-24T05:30:07.715Z,92.20
2022-11-24T05:30:40.287Z,92.10
2022-11-24T05:31:12.193Z,92.50
2022-11-24T05:31:43.997Z,92.10
2022-11-24T05:32:16.026Z,92.10
2022-11-24T05:32:47.766Z,92.40
2022-11-24T05:33:20.122Z,92.20
2022-11-24T05:33:52.313Z,92.70
2022-11-24T05:34:24.507Z,92.10
2022-11-24T05:34:56.773Z,92.10
2022-11-24T05:35:28.515Z,91.80
2022-11-24T05:36:02.141Z,92.20
2022-11-24T05:36:52.790Z,92.70
2022-11-24T05:37:25.680Z,92.60
2022-11-24T05:37:58.882Z,92.20
2022-11-24T05:38:31.577Z,92.60
2022-11-24T05:39:03.462Z,92.20
2022-11-24T05:39:36.628Z,91.40
2022-11-24T05:40:08.729Z,92.50
2022-11-24T05:40:40.647Z,92.20
2022-11-24T05:41:12.375Z,92.40
2022-11-24T05:41:44.184Z,92.20
2022-11-24T05:42:34.568Z,92.20
2022-11-24T05:43:16.808Z,92.20
2022-11-24T05:43:48.659Z,92.10
2022-11-24T05:44:20.376Z,92.10
2022-11-24T05:44:53.596Z,92.10
2022-11-24T05:45:25.409Z,92.10
2022-11-24T05:46:00.913Z,92.10
2022-11-24T05:46:32.758Z,92.60
2022-11-24T05:47:04.740Z,92.10
2022-11-24T05:47:36.800Z,92.20
2022-11-24T05:48:12.616Z,92.30
2022-11-24T05:48:44.515Z,92.20
2022-11-24T05:49:16.343Z,92.10
2022-11-24T05:49:48.427Z,92.40
2022-11-24T05:50:22.382Z,92.50
2022-11-24T05:50:58.717Z,92.10
2022-11-24T05:51:30.837Z,92.20
2022-11-24T05:52:02.598Z,92.60
2022-11-24T05:52:34.607Z,92.20
2022-11-24T05:53:09.232Z,92.30
2022-11-24T05:53:40.980Z,92.60
2022-11-24T05:54:12.756Z,92.20
2022-11-24T05:54:44.714Z,92.10
2022-11-24T05:55:16.628Z,92.20
2022-11-24T05:55:48.384Z,92.10
2022-11-24T05:56:20.101Z,92.10
2022-11-24T05:56:51.853Z,92.20
2022-11-24T05:57:23.640Z,92.60
2022-11-24T05:58:04.041Z,92.70
2022-11-24T05:58:35.881Z,92.20
2022-11-24T05:59:09.967Z,92.30
2022-11-24T05:59:42.045Z,92.20
2022-11-24T06:00:14.921Z,92.60
2022-11-24T06:00:46.768Z,92.20
2022-11-24T06:01:18.505Z,92.70
2022-11-24T06:01:50.324Z,92.10
2022-11-24T06:02:22.380Z,92.10
2022-11-24T06:02:54.452Z,92.20
2022-11-24T06:03:26.336Z,92.20
2022-11-24T06:03:58.081Z,92.20
2022-11-24T06:04:29.826Z,92.10
2022-11-24T06:05:01.607Z,92.10
2022-11-24T06:05:33.406Z,92.10
2022-11-24T06:06:05.290Z,92.20
2022-11-24T06:06:37.073Z,92.20
2022-11-24T06:07:11.721Z,92.80
2022-11-24T06:07:43.709Z,92.20
2022-11-24T06:08:15.815Z,92.20
2022-11-24T06:08:47.652Z,92.90
2022-11-24T06:09:19.526Z,92.30
2022-11-24T06:09:51.343Z,92.30
2022-11-24T06:10:26.525Z,92.20
2022-11-24T06:11:17.020Z,92.10
2022-11-24T06:11:48.902Z,92.70
2022-11-24T06:12:20.678Z,92.10
2022-11-24T06:12:52.796Z,92.10
2022-11-24T06:13:24.619Z,92.70
2022-11-24T06:13:56.552Z,92.10
2022-11-24T06:14:28.522Z,92.20
2022-11-24T06:15:00.302Z,92.70
2022-11-24T06:15:32.377Z,92.20
2022-11-24T06:16:04.420Z,92.10
2022-11-24T06:16:36.441Z,92.10
2022-11-24T06:17:11.109Z,92.30
2022-11-24T06:17:43.024Z,92.60
2022-11-24T06:18:14.757Z,92.30
2022-11-24T06:18:46.472Z,92.10
2022-11-24T06:19:18.151Z,92.10
2022-11-24T06:19:51.639Z,92.30
2022-11-24T06:20:28.315Z,92.80
2022-11-24T06:21:10.958Z,92.30
2022-11-24T06:21:43.535Z,92.10
2022-11-24T06:22:15.614Z,92.20
2022-11-24T06:22:48.189Z,92.90
2022-11-24T06:23:19.968Z,92.20
2022-11-24T06:23:51.745Z,92.40
2022-11-24T06:24:24.120Z,92.10
2022-11-24T06:24:55.878Z,92.80
2022-11-24T06:25:28.817Z,92.70
2022-11-24T06:26:01.113Z,92.40
2022-11-24T06:26:32.942Z,92.80
2022-11-24T06:27:04.674Z,92.70
2022-11-24T06:27:36.487Z,92.10
2022-11-24T06:28:08.303Z,92.10
2022-11-24T06:28:40.231Z,92.10
2022-11-24T06:29:12.144Z,92.80
2022-11-24T06:29:43.885Z,92.10
2022-11-24T06:30:15.782Z,92.10
2022-11-24T06:30:47.525Z,92.10
2022-11-24T06:31:19.427Z,92.10
2022-11-24T06:31:51.359Z,92.10
2022-11-24T06:32:24.179Z,92.10
2022-11-24T06:32:56.196Z,92.20
2022-11-24T06:33:32.042Z,92.20
2022-11-24T06:34:07.452Z,92.10
2022-11-24T06:34:39.258Z,92.10
2022-11-24T06:35:12.577Z,92.10
2022-11-24T06:35:44.389Z,92.00
2022-11-24T06:36:16.658Z,92.40
2022-11-24T06:36:48.428Z,92.10
2022-11-24T06:37:20.214Z,92.20
2022-11-24T06:37:52.000Z,92.40
2022-11-24T06:38:24.491Z,92.10
2022-11-24T06:38:56.417Z,92.50
2022-11-24T06:39:28.284Z,92.50
2022-11-24T06:40:00.154Z,92.30
2022-11-24T06:40:31.934Z,92.30
2022-11-24T06:41:10.126Z,92.20
2022-11-24T06:41:41.868Z,92.70
2022-11-24T06:42:13.697Z,92.10
2022-11-24T06:42:51.232Z,92.30
2022-11-24T06:43:23.229Z,92.40
2022-11-24T06:43:54.991Z,92.10
2022-11-24T06:44:27.354Z,92.60
2022-11-24T06:45:00.251Z,92.40
2022-11-24T06:45:32.203Z,92.10
2022-11-24T06:46:04.484Z,92.10
2022-11-24T06:46:36.260Z,92.10
2022-11-24T06:47:08.018Z,92.00
2022-11-24T06:47:39.909Z,92.10
2022-11-24T06:48:11.639Z,92.00
2022-11-24T06:48:43.435Z,92.70
2022-11-24T06:49:15.458Z,92.10
2022-11-24T06:49:47.312Z,92.50
2022-11-24T06:50:19.142Z,92.40
2022-11-24T06:50:51.117Z,92.80
2022-11-24T06:51:23.024Z,92.10
2022-11-24T06:51:55.341Z,92.40
2022-11-24T06:52:27.040Z,92.70
2022-11-24T06:52:58.892Z,92.00
2022-11-24T06:53:32.188Z,92.30
2022-11-24T06:54:07.813Z,92.80
2022-11-24T06:54:42.776Z,92.10
2022-11-24T06:55:14.589Z,92.20
2022-11-24T06:55:47.515Z,92.20
2022-11-24T06:56:20.461Z,92.10
2022-11-24T06:56:59.223Z,92.10
2022-11-24T06:57:31.479Z,92.10
2022-11-24T06:58:03.245Z,92.10
2022-11-24T06:58:35.531Z,92.10
2022-11-24T06:59:07.324Z,92.00
2022-11-24T06:59:39.103Z,92.10
2022-11-24T07:00:11.419Z,92.00
2022-11-24T07:00:43.165Z,92.30
2022-11-24T07:01:17.601Z,92.70
2022-11-24T07:01:49.899Z,92.00
2022-11-24T07:02:21.713Z,92.10
2022-11-24T07:02:53.498Z,92.70
2022-11-24T07:03:25.251Z,92.10
2022-11-24T07:03:57.885Z,92.00
2022-11-24T07:04:29.659Z,92.00
2022-11-24T07:05:01.430Z,92.00
2022-11-24T07:05:33.291Z,92.10
2022-11-24T07:06:05.065Z,92.00
2022-11-24T07:06:36.943Z,92.10
2022-11-24T07:07:08.914Z,92.30
2022-11-24T07:07:40.765Z,92.30
2022-11-24T07:08:17.581Z,92.30